sensor_id;sensor_type;location;lat;lon;timestamp;P1;durP1;ratioP1;P2;durP2;ratioP2
50249;SDS011;36133;42.522;27.456;2023-04-24T00:01:15;92.85;;;48.28;;
50249;SDS011;36133;42.522;27.456;2023-04-24T00:03:42;81.35;;;43.92;;
50249;SDS011;36133;42.522;27.456;2023-04-24T00:06:07;89.30;;;43.47;;
50249;SDS011;36133;42.522;27.456;2023-04-24T00:08:34;77.68;;;41.63;;
50249;SDS011;36133;42.522;27.456;2023-04-24T00:11:00;84.40;;;40.13;;
50249;SDS011;36133;42.522;27.456;2023-04-24T00:13:26;72.80;;;38.75;;
50249;SDS011;36133;42.522;27.456;2023-04-24T00:15:53;67.57;;;38.00;;
50249;SDS011;36133;42.522;27.456;2023-04-24T00:18:19;65.70;;;37.38;;
50249;SDS011;36133;42.522;27.456;2023-04-24T00:20:45;66.43;;;37.03;;
50249;SDS011;36133;42.522;27.456;2023-04-24T00:23:11;61.42;;;32.65;;
50249;SDS011;36133;42.522;27.456;2023-04-24T00:25:37;66.22;;;33.50;;
50249;SDS011;36133;42.522;27.456;2023-04-24T00:28:03;63.22;;;34.83;;
50249;SDS011;36133;42.522;27.456;2023-04-24T00:30:28;57.08;;;34.25;;
50249;SDS011;36133;42.522;27.456;2023-04-24T00:32:54;63.05;;;34.88;;
50249;SDS011;36133;42.522;27.456;2023-04-24T00:35:19;66.40;;;35.90;;
50249;SDS011;36133;42.522;27.456;2023-04-24T00:37:45;71.85;;;38.50;;
50249;SDS011;36133;42.522;27.456;2023-04-24T00:40:11;68.13;;;39.00;;
50249;SDS011;36133;42.522;27.456;2023-04-24T00:42:37;74.88;;;39.28;;
50249;SDS011;36133;42.522;27.456;2023-04-24T00:45:03;72.07;;;39.50;;
50249;SDS011;36133;42.522;27.456;2023-04-24T00:47:30;136.45;;;72.53;;
50249;SDS011;36133;42.522;27.456;2023-04-24T00:49:56;130.63;;;68.53;;
50249;SDS011;36133;42.522;27.456;2023-04-24T00:52:22;103.07;;;58.97;;
50249;SDS011;36133;42.522;27.456;2023-04-24T00:54:49;112.25;;;57.22;;
50249;SDS011;36133;42.522;27.456;2023-04-24T00:57:15;97.20;;;52.40;;
50249;SDS011;36133;42.522;27.456;2023-04-24T00:59:41;112.60;;;59.30;;
50249;SDS011;36133;42.522;27.456;2023-04-24T01:02:10;122.85;;;67.13;;
50249;SDS011;36133;42.522;27.456;2023-04-24T01:04:36;115.72;;;63.03;;
50249;SDS011;36133;42.522;27.456;2023-04-24T01:07:02;87.38;;;47.15;;
50249;SDS011;36133;42.522;27.456;2023-04-24T01:09:29;82.22;;;46.42;;
50249;SDS011;36133;42.522;27.456;2023-04-24T01:11:55;94.10;;;51.70;;
50249;SDS011;36133;42.522;27.456;2023-04-24T01:14:21;77.28;;;43.75;;
50249;SDS011;36133;42.522;27.456;2023-04-24T01:16:47;84.90;;;45.40;;
50249;SDS011;36133;42.522;27.456;2023-04-24T01:19:13;136.18;;;80.18;;
50249;SDS011;36133;42.522;27.456;2023-04-24T01:21:40;154.80;;;92.18;;
50249;SDS011;36133;42.522;27.456;2023-04-24T01:24:08;125.47;;;75.78;;
50249;SDS011;36133;42.522;27.456;2023-04-24T01:26:34;103.20;;;60.47;;
50249;SDS011;36133;42.522;27.456;2023-04-24T01:28:59;103.68;;;56.15;;
50249;SDS011;36133;42.522;27.456;2023-04-24T01:31:25;90.72;;;48.72;;
50249;SDS011;36133;42.522;27.456;2023-04-24T01:33:51;79.55;;;45.65;;
50249;SDS011;36133;42.522;27.456;2023-04-24T01:36:17;84.15;;;46.70;;
50249;SDS011;36133;42.522;27.456;2023-04-24T01:38:43;83.78;;;46.30;;
50249;SDS011;36133;42.522;27.456;2023-04-24T01:41:09;76.63;;;45.70;;
50249;SDS011;36133;42.522;27.456;2023-04-24T01:43:35;90.93;;;45.05;;
50249;SDS011;36133;42.522;27.456;2023-04-24T01:46:01;87.20;;;44.47;;
50249;SDS011;36133;42.522;27.456;2023-04-24T01:48:26;81.28;;;43.58;;
50249;SDS011;36133;42.522;27.456;2023-04-24T01:50:52;79.13;;;42.42;;
50249;SDS011;36133;42.522;27.456;2023-04-24T01:53:21;77.72;;;42.72;;
50249;SDS011;36133;42.522;27.456;2023-04-24T01:55:47;76.38;;;41.33;;
50249;SDS011;36133;42.522;27.456;2023-04-24T01:58:12;67.10;;;38.20;;
50249;SDS011;36133;42.522;27.456;2023-04-24T02:00:38;76.20;;;39.80;;
50249;SDS011;36133;42.522;27.456;2023-04-24T02:03:03;72.35;;;38.95;;
50249;SDS011;36133;42.522;27.456;2023-04-24T02:05:29;77.00;;;37.95;;
50249;SDS011;36133;42.522;27.456;2023-04-24T02:07:54;65.53;;;35.63;;
50249;SDS011;36133;42.522;27.456;2023-04-24T02:10:20;68.97;;;37.28;;
50249;SDS011;36133;42.522;27.456;2023-04-24T02:12:46;63.00;;;35.00;;
50249;SDS011;36133;42.522;27.456;2023-04-24T02:15:11;66.45;;;38.78;;
50249;SDS011;36133;42.522;27.456;2023-04-24T02:17:37;90.45;;;40.72;;
50249;SDS011;36133;42.522;27.456;2023-04-24T02:20:03;72.82;;;40.20;;
50249;SDS011;36133;42.522;27.456;2023-04-24T02:22:30;76.50;;;40.50;;
50249;SDS011;36133;42.522;27.456;2023-04-24T02:24:55;80.68;;;41.75;;
50249;SDS011;36133;42.522;27.456;2023-04-24T02:27:21;80.13;;;43.90;;
50249;SDS011;36133;42.522;27.456;2023-04-24T02:29:47;78.78;;;40.67;;
50249;SDS011;36133;42.522;27.456;2023-04-24T02:32:12;76.72;;;42.05;;
50249;SDS011;36133;42.522;27.456;2023-04-24T02:34:40;79.82;;;41.72;;
50249;SDS011;36133;42.522;27.456;2023-04-24T02:37:06;81.82;;;44.17;;
50249;SDS011;36133;42.522;27.456;2023-04-24T02:39:31;80.00;;;45.17;;
50249;SDS011;36133;42.522;27.456;2023-04-24T02:41:57;82.97;;;43.20;;
50249;SDS011;36133;42.522;27.456;2023-04-24T02:44:23;83.38;;;44.70;;
50249;SDS011;36133;42.522;27.456;2023-04-24T02:46:48;81.35;;;43.42;;
50249;SDS011;36133;42.522;27.456;2023-04-24T02:49:14;83.35;;;43.75;;
50249;SDS011;36133;42.522;27.456;2023-04-24T02:51:40;78.78;;;44.45;;
50249;SDS011;36133;42.522;27.456;2023-04-24T02:54:06;81.63;;;44.08;;
50249;SDS011;36133;42.522;27.456;2023-04-24T02:56:35;98.20;;;44.08;;
50249;SDS011;36133;42.522;27.456;2023-04-24T02:59:01;91.38;;;44.67;;
50249;SDS011;36133;42.522;27.456;2023-04-24T03:01:29;87.22;;;44.05;;
50249;SDS011;36133;42.522;27.456;2023-04-24T03:03:54;96.47;;;48.08;;
50249;SDS011;36133;42.522;27.456;2023-04-24T03:06:20;97.93;;;46.45;;
50249;SDS011;36133;42.522;27.456;2023-04-24T03:08:46;104.28;;;49.30;;
50249;SDS011;36133;42.522;27.456;2023-04-24T03:11:12;101.03;;;48.90;;
50249;SDS011;36133;42.522;27.456;2023-04-24T03:13:37;89.93;;;44.53;;
50249;SDS011;36133;42.522;27.456;2023-04-24T03:16:03;92.28;;;44.00;;
50249;SDS011;36133;42.522;27.456;2023-04-24T03:18:28;86.35;;;44.38;;
50249;SDS011;36133;42.522;27.456;2023-04-24T03:20:54;84.03;;;42.60;;
50249;SDS011;36133;42.522;27.456;2023-04-24T03:23:19;83.13;;;41.50;;
50249;SDS011;36133;42.522;27.456;2023-04-24T03:25:45;82.03;;;42.75;;
50249;SDS011;36133;42.522;27.456;2023-04-24T03:28:13;76.25;;;41.78;;
50249;SDS011;36133;42.522;27.456;2023-04-24T03:30:38;85.43;;;42.38;;
50249;SDS011;36133;42.522;27.456;2023-04-24T03:33:04;79.20;;;41.83;;
50249;SDS011;36133;42.522;27.456;2023-04-24T03:35:29;91.45;;;42.78;;
50249;SDS011;36133;42.522;27.456;2023-04-24T03:37:55;86.43;;;43.30;;
50249;SDS011;36133;42.522;27.456;2023-04-24T03:40:20;83.82;;;43.25;;
50249;SDS011;36133;42.522;27.456;2023-04-24T03:42:46;90.50;;;45.97;;
50249;SDS011;36133;42.522;27.456;2023-04-24T03:45:12;79.18;;;44.70;;
50249;SDS011;36133;42.522;27.456;2023-04-24T03:47:37;94.75;;;46.15;;
50249;SDS011;36133;42.522;27.456;2023-04-24T03:50:03;94.20;;;45.75;;
50249;SDS011;36133;42.522;27.456;2023-04-24T03:52:28;91.15;;;46.67;;
50249;SDS011;36133;42.522;27.456;2023-04-24T03:54:54;94.47;;;50.20;;
50249;SDS011;36133;42.522;27.456;2023-04-24T03:57:20;124.45;;;62.65;;
50249;SDS011;36133;42.522;27.456;2023-04-24T03:59:46;111.07;;;59.72;;
50249;SDS011;36133;42.522;27.456;2023-04-24T04:02:12;103.63;;;56.08;;
50249;SDS011;36133;42.522;27.456;2023-04-24T04:04:37;105.75;;;55.17;;
50249;SDS011;36133;42.522;27.456;2023-04-24T04:07:03;99.70;;;55.00;;
50249;SDS011;36133;42.522;27.456;2023-04-24T04:09:30;105.85;;;57.20;;
50249;SDS011;36133;42.522;27.456;2023-04-24T04:11:56;102.38;;;53.55;;
50249;SDS011;36133;42.522;27.456;2023-04-24T04:14:22;91.05;;;50.13;;
50249;SDS011;36133;42.522;27.456;2023-04-24T04:16:48;93.78;;;50.38;;
50249;SDS011;36133;42.522;27.456;2023-04-24T04:19:14;92.65;;;49.67;;
50249;SDS011;36133;42.522;27.456;2023-04-24T04:21:39;89.32;;;45.67;;
50249;SDS011;36133;42.522;27.456;2023-04-24T04:24:05;71.88;;;39.70;;
50249;SDS011;36133;42.522;27.456;2023-04-24T04:26:32;61.20;;;35.92;;
50249;SDS011;36133;42.522;27.456;2023-04-24T04:28:58;50.38;;;30.90;;
50249;SDS011;36133;42.522;27.456;2023-04-24T04:31:25;52.30;;;28.08;;
50249;SDS011;36133;42.522;27.456;2023-04-24T04:33:51;50.75;;;28.38;;
50249;SDS011;36133;42.522;27.456;2023-04-24T04:36:16;52.13;;;29.70;;
50249;SDS011;36133;42.522;27.456;2023-04-24T04:38:44;50.83;;;25.83;;
50249;SDS011;36133;42.522;27.456;2023-04-24T04:41:10;41.63;;;23.20;;
50249;SDS011;36133;42.522;27.456;2023-04-24T04:43:36;46.80;;;22.48;;
50249;SDS011;36133;42.522;27.456;2023-04-24T04:46:05;46.60;;;22.73;;
50249;SDS011;36133;42.522;27.456;2023-04-24T04:48:33;41.35;;;25.00;;
50249;SDS011;36133;42.522;27.456;2023-04-24T04:50:59;47.80;;;21.38;;
50249;SDS011;36133;42.522;27.456;2023-04-24T04:53:24;44.15;;;19.73;;
50249;SDS011;36133;42.522;27.456;2023-04-24T04:55:50;37.70;;;18.90;;
50249;SDS011;36133;42.522;27.456;2023-04-24T04:58:16;33.88;;;17.88;;
50249;SDS011;36133;42.522;27.456;2023-04-24T05:00:44;35.08;;;16.23;;
50249;SDS011;36133;42.522;27.456;2023-04-24T05:03:09;30.40;;;15.32;;
50249;SDS011;36133;42.522;27.456;2023-04-24T05:05:35;34.95;;;17.02;;
50249;SDS011;36133;42.522;27.456;2023-04-24T05:08:00;33.95;;;17.80;;
50249;SDS011;36133;42.522;27.456;2023-04-24T05:10:28;36.80;;;20.05;;
50249;SDS011;36133;42.522;27.456;2023-04-24T05:12:55;41.80;;;27.95;;
50249;SDS011;36133;42.522;27.456;2023-04-24T05:15:21;54.47;;;30.75;;
50249;SDS011;36133;42.522;27.456;2023-04-24T05:17:46;48.33;;;28.65;;
50249;SDS011;36133;42.522;27.456;2023-04-24T05:20:12;43.13;;;27.63;;
50249;SDS011;36133;42.522;27.456;2023-04-24T05:22:37;43.80;;;26.48;;
50249;SDS011;36133;42.522;27.456;2023-04-24T05:25:03;35.42;;;23.70;;
50249;SDS011;36133;42.522;27.456;2023-04-24T05:27:29;37.42;;;21.63;;
50249;SDS011;36133;42.522;27.456;2023-04-24T05:29:54;38.40;;;20.45;;
50249;SDS011;36133;42.522;27.456;2023-04-24T05:32:20;43.40;;;19.63;;
50249;SDS011;36133;42.522;27.456;2023-04-24T05:34:45;35.35;;;19.02;;
50249;SDS011;36133;42.522;27.456;2023-04-24T05:37:11;40.35;;;19.00;;
50249;SDS011;36133;42.522;27.456;2023-04-24T05:39:37;35.00;;;17.83;;
50249;SDS011;36133;42.522;27.456;2023-04-24T05:42:03;41.22;;;20.55;;
50249;SDS011;36133;42.522;27.456;2023-04-24T05:44:29;42.25;;;19.70;;
50249;SDS011;36133;42.522;27.456;2023-04-24T05:46:55;36.67;;;17.80;;
50249;SDS011;36133;42.522;27.456;2023-04-24T05:49:21;33.03;;;17.10;;
50249;SDS011;36133;42.522;27.456;2023-04-24T05:51:47;34.35;;;18.17;;
50249;SDS011;36133;42.522;27.456;2023-04-24T05:54:13;39.63;;;18.15;;
50249;SDS011;36133;42.522;27.456;2023-04-24T05:56:41;28.05;;;16.55;;
50249;SDS011;36133;42.522;27.456;2023-04-24T05:59:07;31.75;;;18.33;;
50249;SDS011;36133;42.522;27.456;2023-04-24T06:01:33;38.53;;;21.45;;
50249;SDS011;36133;42.522;27.456;2023-04-24T06:03:58;35.38;;;21.80;;
50249;SDS011;36133;42.522;27.456;2023-04-24T06:06:27;40.42;;;22.95;;
50249;SDS011;36133;42.522;27.456;2023-04-24T06:08:53;37.00;;;21.95;;
50249;SDS011;36133;42.522;27.456;2023-04-24T06:11:19;49.35;;;20.55;;
50249;SDS011;36133;42.522;27.456;2023-04-24T06:13:45;36.28;;;19.83;;
50249;SDS011;36133;42.522;27.456;2023-04-24T06:16:10;31.13;;;19.73;;
50249;SDS011;36133;42.522;27.456;2023-04-24T06:18:36;34.40;;;17.75;;
50249;SDS011;36133;42.522;27.456;2023-04-24T06:21:04;27.90;;;17.92;;
50249;SDS011;36133;42.522;27.456;2023-04-24T06:23:30;29.75;;;15.50;;
50249;SDS011;36133;42.522;27.456;2023-04-24T06:25:57;26.00;;;14.93;;
50249;SDS011;36133;42.522;27.456;2023-04-24T06:28:27;23.75;;;12.98;;
50249;SDS011;36133;42.522;27.456;2023-04-24T06:30:52;23.20;;;13.00;;
50249;SDS011;36133;42.522;27.456;2023-04-24T06:33:18;29.65;;;12.25;;
50249;SDS011;36133;42.522;27.456;2023-04-24T06:35:44;28.80;;;12.02;;
50249;SDS011;36133;42.522;27.456;2023-04-24T06:38:10;30.73;;;11.73;;
50249;SDS011;36133;42.522;27.456;2023-04-24T06:40:35;17.77;;;10.13;;
50249;SDS011;36133;42.522;27.456;2023-04-24T06:43:01;16.42;;;10.48;;
50249;SDS011;36133;42.522;27.456;2023-04-24T06:45:28;23.85;;;10.98;;
50249;SDS011;36133;42.522;27.456;2023-04-24T06:47:54;17.67;;;10.68;;
50249;SDS011;36133;42.522;27.456;2023-04-24T06:50:20;23.65;;;10.27;;
50249;SDS011;36133;42.522;27.456;2023-04-24T06:52:46;21.40;;;9.68;;
50249;SDS011;36133;42.522;27.456;2023-04-24T06:55:12;19.38;;;9.50;;
50249;SDS011;36133;42.522;27.456;2023-04-24T06:57:43;12.82;;;9.32;;
50249;SDS011;36133;42.522;27.456;2023-04-24T07:00:12;19.73;;;10.40;;
50249;SDS011;36133;42.522;27.456;2023-04-24T07:02:38;20.52;;;10.18;;
50249;SDS011;36133;42.522;27.456;2023-04-24T07:05:04;21.77;;;9.60;;
50249;SDS011;36133;42.522;27.456;2023-04-24T07:07:30;23.00;;;10.88;;
50249;SDS011;36133;42.522;27.456;2023-04-24T07:09:56;17.92;;;11.40;;
50249;SDS011;36133;42.522;27.456;2023-04-24T07:12:22;18.33;;;11.63;;
50249;SDS011;36133;42.522;27.456;2023-04-24T07:14:50;22.92;;;11.43;;
50249;SDS011;36133;42.522;27.456;2023-04-24T07:17:16;20.00;;;10.27;;
50249;SDS011;36133;42.522;27.456;2023-04-24T07:19:41;22.27;;;11.70;;
50249;SDS011;36133;42.522;27.456;2023-04-24T07:22:07;22.75;;;10.35;;
50249;SDS011;36133;42.522;27.456;2023-04-24T07:24:33;19.77;;;10.93;;
50249;SDS011;36133;42.522;27.456;2023-04-24T07:26:59;20.67;;;10.05;;
50249;SDS011;36133;42.522;27.456;2023-04-24T07:29:26;17.58;;;9.55;;
50249;SDS011;36133;42.522;27.456;2023-04-24T07:31:52;21.50;;;9.55;;
50249;SDS011;36133;42.522;27.456;2023-04-24T07:34:19;15.90;;;9.40;;
50249;SDS011;36133;42.522;27.456;2023-04-24T07:36:47;19.00;;;8.57;;
50249;SDS011;36133;42.522;27.456;2023-04-24T07:39:15;16.13;;;8.38;;
50249;SDS011;36133;42.522;27.456;2023-04-24T07:44:41;15.48;;;7.88;;
50249;SDS011;36133;42.522;27.456;2023-04-24T07:47:07;17.60;;;9.07;;
50249;SDS011;36133;42.522;27.456;2023-04-24T07:49:33;17.75;;;7.93;;
50249;SDS011;36133;42.522;27.456;2023-04-24T07:52:00;16.10;;;9.77;;
50249;SDS011;36133;42.522;27.456;2023-04-24T07:54:27;18.33;;;9.02;;
50249;SDS011;36133;42.522;27.456;2023-04-24T07:56:56;21.75;;;9.07;;
50249;SDS011;36133;42.522;27.456;2023-04-24T07:59:21;15.02;;;9.25;;
50249;SDS011;36133;42.522;27.456;2023-04-24T08:01:47;18.30;;;9.45;;
50249;SDS011;36133;42.522;27.456;2023-04-24T08:04:12;12.25;;;8.73;;
50249;SDS011;36133;42.522;27.456;2023-04-24T08:06:38;16.98;;;9.18;;
50249;SDS011;36133;42.522;27.456;2023-04-24T08:09:04;13.73;;;7.72;;
50249;SDS011;36133;42.522;27.456;2023-04-24T08:11:30;15.82;;;8.48;;
50249;SDS011;36133;42.522;27.456;2023-04-24T08:13:55;14.07;;;7.75;;
50249;SDS011;36133;42.522;27.456;2023-04-24T08:16:21;18.13;;;8.35;;
50249;SDS011;36133;42.522;27.456;2023-04-24T08:18:48;12.45;;;8.02;;
50249;SDS011;36133;42.522;27.456;2023-04-24T08:21:15;11.98;;;7.65;;
50249;SDS011;36133;42.522;27.456;2023-04-24T08:23:44;12.13;;;7.35;;
50249;SDS011;36133;42.522;27.456;2023-04-24T08:26:11;14.73;;;7.10;;
50249;SDS011;36133;42.522;27.456;2023-04-24T08:28:37;14.45;;;6.75;;
50249;SDS011;36133;42.522;27.456;2023-04-24T08:31:03;15.35;;;7.35;;
50249;SDS011;36133;42.522;27.456;2023-04-24T08:33:35;11.80;;;6.40;;
50249;SDS011;36133;42.522;27.456;2023-04-24T08:36:04;14.90;;;5.20;;
50249;SDS011;36133;42.522;27.456;2023-04-24T08:38:30;8.05;;;4.75;;
50249;SDS011;36133;42.522;27.456;2023-04-24T08:40:58;9.20;;;4.85;;
50249;SDS011;36133;42.522;27.456;2023-04-24T08:43:25;11.43;;;3.97;;
50249;SDS011;36133;42.522;27.456;2023-04-24T08:45:51;8.02;;;4.10;;
50249;SDS011;36133;42.522;27.456;2023-04-24T08:48:17;10.57;;;4.38;;
50249;SDS011;36133;42.522;27.456;2023-04-24T08:50:44;11.68;;;4.43;;
50249;SDS011;36133;42.522;27.456;2023-04-24T08:53:12;14.50;;;4.47;;
50249;SDS011;36133;42.522;27.456;2023-04-24T08:55:41;6.88;;;4.28;;
50249;SDS011;36133;42.522;27.456;2023-04-24T08:58:11;8.20;;;4.18;;
50249;SDS011;36133;42.522;27.456;2023-04-24T09:00:40;13.38;;;4.38;;
50249;SDS011;36133;42.522;27.456;2023-04-24T09:03:11;11.63;;;4.43;;
50249;SDS011;36133;42.522;27.456;2023-04-24T09:05:39;8.50;;;3.80;;
50249;SDS011;36133;42.522;27.456;2023-04-24T09:08:05;12.93;;;4.55;;
50249;SDS011;36133;42.522;27.456;2023-04-24T09:10:33;13.75;;;4.55;;
50249;SDS011;36133;42.522;27.456;2023-04-24T09:13:00;6.50;;;4.20;;
50249;SDS011;36133;42.522;27.456;2023-04-24T09:15:28;10.63;;;4.45;;
50249;SDS011;36133;42.522;27.456;2023-04-24T09:17:55;11.65;;;4.50;;
50249;SDS011;36133;42.522;27.456;2023-04-24T09:20:21;14.63;;;4.90;;
50249;SDS011;36133;42.522;27.456;2023-04-24T09:22:47;11.88;;;5.15;;
50249;SDS011;36133;42.522;27.456;2023-04-24T09:25:20;14.50;;;5.13;;
50249;SDS011;36133;42.522;27.456;2023-04-24T09:27:48;11.65;;;4.55;;
50249;SDS011;36133;42.522;27.456;2023-04-24T09:30:14;9.10;;;4.75;;
50249;SDS011;36133;42.522;27.456;2023-04-24T09:32:47;8.60;;;4.53;;
50249;SDS011;36133;42.522;27.456;2023-04-24T09:35:16;14.57;;;4.60;;
50249;SDS011;36133;42.522;27.456;2023-04-24T09:37:43;12.75;;;4.80;;
50249;SDS011;36133;42.522;27.456;2023-04-24T09:40:17;8.55;;;5.05;;
50249;SDS011;36133;42.522;27.456;2023-04-24T09:43:01;11.07;;;5.15;;
50249;SDS011;36133;42.522;27.456;2023-04-24T09:45:28;17.45;;;4.97;;
50249;SDS011;36133;42.522;27.456;2023-04-24T09:48:01;21.08;;;5.13;;
50249;SDS011;36133;42.522;27.456;2023-04-24T09:50:27;12.65;;;4.95;;
50249;SDS011;36133;42.522;27.456;2023-04-24T09:52:58;11.85;;;4.78;;
50249;SDS011;36133;42.522;27.456;2023-04-24T09:55:33;16.65;;;4.95;;
50249;SDS011;36133;42.522;27.456;2023-04-24T09:58:19;25.10;;;5.15;;
50249;SDS011;36133;42.522;27.456;2023-04-24T10:01:08;12.93;;;4.07;;
50249;SDS011;36133;42.522;27.456;2023-04-24T10:03:45;12.43;;;4.38;;
50249;SDS011;36133;42.522;27.456;2023-04-24T10:06:16;13.60;;;4.28;;
50249;SDS011;36133;42.522;27.456;2023-04-24T10:08:41;21.42;;;4.35;;
50249;SDS011;36133;42.522;27.456;2023-04-24T10:11:11;12.52;;;4.22;;
50249;SDS011;36133;42.522;27.456;2023-04-24T10:13:38;15.02;;;4.35;;
50249;SDS011;36133;42.522;27.456;2023-04-24T10:16:05;14.35;;;4.20;;
50249;SDS011;36133;42.522;27.456;2023-04-24T10:18:34;14.63;;;4.20;;
50249;SDS011;36133;42.522;27.456;2023-04-24T10:21:03;13.57;;;4.20;;
50249;SDS011;36133;42.522;27.456;2023-04-24T10:23:29;15.65;;;3.65;;
50249;SDS011;36133;42.522;27.456;2023-04-24T10:25:55;11.73;;;4.05;;
50249;SDS011;36133;42.522;27.456;2023-04-24T10:28:21;10.10;;;3.88;;
50249;SDS011;36133;42.522;27.456;2023-04-24T10:30:49;10.90;;;4.28;;
50249;SDS011;36133;42.522;27.456;2023-04-24T10:33:16;11.68;;;3.85;;
50249;SDS011;36133;42.522;27.456;2023-04-24T10:35:45;13.23;;;4.53;;
50249;SDS011;36133;42.522;27.456;2023-04-24T10:38:17;13.30;;;3.95;;
50249;SDS011;36133;42.522;27.456;2023-04-24T10:40:51;9.77;;;3.78;;
50249;SDS011;36133;42.522;27.456;2023-04-24T10:43:39;11.75;;;3.65;;
50249;SDS011;36133;42.522;27.456;2023-04-24T10:46:05;16.05;;;4.03;;
50249;SDS011;36133;42.522;27.456;2023-04-24T10:48:32;18.50;;;4.28;;
50249;SDS011;36133;42.522;27.456;2023-04-24T10:50:58;9.68;;;3.60;;
50249;SDS011;36133;42.522;27.456;2023-04-24T10:53:27;15.65;;;4.28;;
50249;SDS011;36133;42.522;27.456;2023-04-24T10:55:58;10.95;;;3.65;;
50249;SDS011;36133;42.522;27.456;2023-04-24T11:01:03;14.55;;;3.67;;
50249;SDS011;36133;42.522;27.456;2023-04-24T11:06:31;14.68;;;3.80;;
50249;SDS011;36133;42.522;27.456;2023-04-24T11:09:01;8.48;;;3.30;;
50249;SDS011;36133;42.522;27.456;2023-04-24T11:11:28;11.25;;;3.85;;
50249;SDS011;36133;42.522;27.456;2023-04-24T11:16:21;15.25;;;3.85;;
50249;SDS011;36133;42.522;27.456;2023-04-24T11:19:17;9.68;;;3.53;;
50249;SDS011;36133;42.522;27.456;2023-04-24T11:21:43;12.15;;;3.85;;
50249;SDS011;36133;42.522;27.456;2023-04-24T11:24:22;7.93;;;3.38;;
50249;SDS011;36133;42.522;27.456;2023-04-24T11:29:39;9.25;;;3.55;;
50249;SDS011;36133;42.522;27.456;2023-04-24T11:35:20;8.13;;;3.00;;
50249;SDS011;36133;42.522;27.456;2023-04-24T11:37:50;14.73;;;3.42;;
50249;SDS011;36133;42.522;27.456;2023-04-24T11:40:18;14.60;;;3.38;;
50249;SDS011;36133;42.522;27.456;2023-04-24T11:42:54;14.30;;;3.60;;
50249;SDS011;36133;42.522;27.456;2023-04-24T11:45:25;12.93;;;3.97;;
50249;SDS011;36133;42.522;27.456;2023-04-24T11:47:55;10.68;;;3.08;;
50249;SDS011;36133;42.522;27.456;2023-04-24T11:50:24;8.77;;;3.28;;
50249;SDS011;36133;42.522;27.456;2023-04-24T11:58:46;11.53;;;2.90;;
50249;SDS011;36133;42.522;27.456;2023-04-24T12:04:20;10.32;;;3.30;;
50249;SDS011;36133;42.522;27.456;2023-04-24T12:07:06;18.10;;;3.58;;
50249;SDS011;36133;42.522;27.456;2023-04-24T12:09:47;9.00;;;3.30;;
50249;SDS011;36133;42.522;27.456;2023-04-24T12:12:20;9.03;;;3.30;;
50249;SDS011;36133;42.522;27.456;2023-04-24T12:14:49;19.55;;;4.53;;
50249;SDS011;36133;42.522;27.456;2023-04-24T12:17:17;12.23;;;3.58;;
50249;SDS011;36133;42.522;27.456;2023-04-24T12:19:58;13.65;;;4.00;;
50249;SDS011;36133;42.522;27.456;2023-04-24T12:22:26;7.30;;;3.13;;
50249;SDS011;36133;42.522;27.456;2023-04-24T12:24:55;11.82;;;3.53;;
50249;SDS011;36133;42.522;27.456;2023-04-24T12:27:29;16.73;;;3.63;;
50249;SDS011;36133;42.522;27.456;2023-04-24T12:30:00;9.80;;;3.42;;
50249;SDS011;36133;42.522;27.456;2023-04-24T12:32:28;9.07;;;3.50;;
50249;SDS011;36133;42.522;27.456;2023-04-24T12:34:54;13.25;;;4.28;;
50249;SDS011;36133;42.522;27.456;2023-04-24T12:37:24;7.00;;;3.50;;
50249;SDS011;36133;42.522;27.456;2023-04-24T12:40:04;12.40;;;4.00;;
50249;SDS011;36133;42.522;27.456;2023-04-24T12:42:32;11.40;;;4.35;;
50249;SDS011;36133;42.522;27.456;2023-04-24T12:45:07;13.82;;;4.47;;
50249;SDS011;36133;42.522;27.456;2023-04-24T12:47:34;15.25;;;4.93;;
50249;SDS011;36133;42.522;27.456;2023-04-24T12:50:02;13.07;;;4.60;;
50249;SDS011;36133;42.522;27.456;2023-04-24T12:52:29;11.55;;;5.00;;
50249;SDS011;36133;42.522;27.456;2023-04-24T12:54:58;12.50;;;4.30;;
50249;SDS011;36133;42.522;27.456;2023-04-24T12:57:25;8.52;;;4.30;;
50249;SDS011;36133;42.522;27.456;2023-04-24T12:59:54;15.77;;;4.70;;
50249;SDS011;36133;42.522;27.456;2023-04-24T13:02:25;14.43;;;4.82;;
50249;SDS011;36133;42.522;27.456;2023-04-24T13:04:52;12.77;;;5.05;;
50249;SDS011;36133;42.522;27.456;2023-04-24T13:07:18;14.65;;;4.82;;
50249;SDS011;36133;42.522;27.456;2023-04-24T13:09:44;13.70;;;4.90;;
50249;SDS011;36133;42.522;27.456;2023-04-24T13:12:11;15.93;;;5.25;;
50249;SDS011;36133;42.522;27.456;2023-04-24T13:14:37;17.10;;;5.45;;
50249;SDS011;36133;42.522;27.456;2023-04-24T13:17:04;16.27;;;5.22;;
50249;SDS011;36133;42.522;27.456;2023-04-24T13:19:34;20.02;;;6.03;;
50249;SDS011;36133;42.522;27.456;2023-04-24T13:22:04;11.93;;;5.38;;
50249;SDS011;36133;42.522;27.456;2023-04-24T13:24:29;14.77;;;5.72;;
50249;SDS011;36133;42.522;27.456;2023-04-24T13:26:56;13.93;;;4.88;;
50249;SDS011;36133;42.522;27.456;2023-04-24T13:29:22;14.88;;;6.32;;
50249;SDS011;36133;42.522;27.456;2023-04-24T13:31:49;16.65;;;5.53;;
50249;SDS011;36133;42.522;27.456;2023-04-24T13:34:16;13.98;;;5.13;;
50249;SDS011;36133;42.522;27.456;2023-04-24T13:36:43;12.05;;;4.88;;
50249;SDS011;36133;42.522;27.456;2023-04-24T13:39:09;13.52;;;4.32;;
50249;SDS011;36133;42.522;27.456;2023-04-24T13:41:35;13.85;;;3.90;;
50249;SDS011;36133;42.522;27.456;2023-04-24T13:44:07;13.88;;;4.32;;
50249;SDS011;36133;42.522;27.456;2023-04-24T13:46:33;16.38;;;4.18;;
50249;SDS011;36133;42.522;27.456;2023-04-24T13:48:59;15.60;;;4.72;;
50249;SDS011;36133;42.522;27.456;2023-04-24T13:51:29;14.23;;;4.78;;
50249;SDS011;36133;42.522;27.456;2023-04-24T13:53:55;11.80;;;4.38;;
50249;SDS011;36133;42.522;27.456;2023-04-24T13:56:21;18.27;;;5.03;;
50249;SDS011;36133;42.522;27.456;2023-04-24T13:58:49;16.52;;;4.22;;
50249;SDS011;36133;42.522;27.456;2023-04-24T14:01:18;11.40;;;4.43;;
50249;SDS011;36133;42.522;27.456;2023-04-24T14:06:31;15.10;;;5.28;;
50249;SDS011;36133;42.522;27.456;2023-04-24T14:08:59;13.73;;;4.97;;
50249;SDS011;36133;42.522;27.456;2023-04-24T14:11:25;13.73;;;4.50;;
50249;SDS011;36133;42.522;27.456;2023-04-24T14:13:54;13.93;;;4.43;;
50249;SDS011;36133;42.522;27.456;2023-04-24T14:16:33;13.25;;;3.95;;
50249;SDS011;36133;42.522;27.456;2023-04-24T14:18:59;15.18;;;4.65;;
50249;SDS011;36133;42.522;27.456;2023-04-24T14:21:28;9.55;;;3.92;;
50249;SDS011;36133;42.522;27.456;2023-04-24T14:23:54;8.73;;;4.10;;
50249;SDS011;36133;42.522;27.456;2023-04-24T14:26:21;12.32;;;4.18;;
50249;SDS011;36133;42.522;27.456;2023-04-24T14:28:47;20.00;;;4.88;;
50249;SDS011;36133;42.522;27.456;2023-04-24T14:31:13;14.38;;;5.07;;
50249;SDS011;36133;42.522;27.456;2023-04-24T14:33:39;10.48;;;4.20;;
50249;SDS011;36133;42.522;27.456;2023-04-24T14:36:04;13.27;;;4.80;;
50249;SDS011;36133;42.522;27.456;2023-04-24T14:38:42;11.23;;;4.20;;
50249;SDS011;36133;42.522;27.456;2023-04-24T14:41:10;14.13;;;5.15;;
50249;SDS011;36133;42.522;27.456;2023-04-24T14:43:44;13.10;;;4.30;;
50249;SDS011;36133;42.522;27.456;2023-04-24T14:46:10;11.27;;;4.00;;